Terminal Aerodrome Forecast
Issued by NWS

Home | Current Version | Previous Version | Text Only | Print | Product List | Glossary On
Versions: 1 2 3 4 5 6 7 8 9 10 11 12 13 14
000
FTUS46 KSEW 221200 AAA
TAFBLI
TAF AMD
KBLI 221234Z 2213/2312 VRB03KT 5SM BR SKC
      TEMPO 2213/2216 3/4SM BR VV001
     FM221700 VRB03KT P6SM SKC=

USA.gov is the U.S. government's official web portal to all federal, state and local government web resources and services.